createdAt,value
2022-08-10T00:00:25.219Z,16.33
2022-08-10T00:01:25.206Z,16.40
2022-08-10T00:02:25.062Z,16.27
2022-08-10T00:03:25.010Z,16.35
2022-08-10T00:04:24.914Z,16.33
2022-08-10T00:05:24.837Z,16.35
2022-08-10T00:06:24.760Z,16.33
2022-08-10T00:07:24.682Z,16.23
2022-08-10T00:08:24.609Z,16.16
2022-08-10T00:09:24.530Z,16.15
2022-08-10T00:10:24.455Z,16.15
2022-08-10T00:11:24.378Z,16.07
2022-08-10T00:12:53.258Z,16.14
2022-08-10T00:13:24.228Z,16.14
2022-08-10T00:14:24.148Z,16.18
2022-08-10T00:15:51.924Z,16.15
2022-08-10T00:16:23.995Z,16.20
2022-08-10T00:17:23.916Z,16.15
2022-08-10T00:18:31.499Z,16.16
2022-08-10T00:19:23.766Z,16.16
2022-08-10T00:20:23.689Z,16.10
2022-08-10T00:21:23.613Z,16.20
2022-08-10T00:22:23.539Z,16.15
2022-08-10T00:23:23.458Z,16.12
2022-08-10T00:24:23.415Z,16.18
2022-08-10T00:25:23.308Z,16.15
2022-08-10T00:26:23.230Z,16.15
2022-08-10T00:27:52.570Z,16.18
2022-08-10T00:28:23.076Z,16.16
2022-08-10T00:29:22.998Z,16.07
2022-08-10T00:30:22.927Z,16.04
2022-08-10T00:31:22.847Z,15.86
2022-08-10T00:32:22.770Z,15.60
2022-08-10T00:33:22.694Z,15.52
2022-08-10T00:34:22.619Z,15.46
2022-08-10T00:35:22.545Z,15.45
2022-08-10T00:36:22.466Z,15.55
2022-08-10T00:37:22.389Z,15.60
2022-08-10T00:38:22.311Z,15.60
2022-08-10T00:39:22.313Z,15.61
2022-08-10T00:40:35.238Z,15.63
2022-08-10T00:41:22.082Z,15.61
2022-08-10T00:42:22.008Z,15.63
2022-08-10T00:43:23.599Z,15.78
2022-08-10T00:44:21.852Z,15.70
2022-08-10T00:45:21.776Z,15.73
2022-08-10T00:46:21.705Z,15.67
2022-08-10T00:47:37.429Z,15.60
2022-08-10T00:48:21.545Z,15.67
2022-08-10T00:49:21.469Z,15.60
2022-08-10T00:50:21.390Z,15.52
2022-08-10T00:51:21.315Z,15.31
2022-08-10T00:52:21.253Z,15.13
2022-08-10T00:53:21.163Z,14.94
2022-08-10T00:54:24.367Z,14.74
2022-08-10T00:55:21.006Z,14.69
2022-08-10T00:57:15.244Z,14.72
2022-08-10T00:57:20.855Z,14.85
2022-08-10T00:58:20.780Z,14.83
2022-08-10T00:59:20.703Z,14.83
2022-08-10T01:00:20.625Z,14.90
2022-08-10T01:02:07.514Z,14.87
2022-08-10T01:02:20.491Z,14.90
2022-08-10T01:04:36.575Z,14.93
2022-08-10T01:04:40.206Z,14.98
2022-08-10T01:05:20.598Z,14.95
2022-08-10T01:06:20.172Z,15.13
2022-08-10T01:07:20.086Z,15.15
2022-08-10T01:08:20.010Z,15.18
2022-08-10T01:09:19.936Z,15.13
2022-08-10T01:10:19.859Z,15.13
2022-08-10T01:12:37.812Z,15.27
2022-08-10T01:12:39.169Z,15.20
2022-08-10T01:13:19.626Z,15.28
2022-08-10T01:14:19.551Z,15.24
2022-08-10T01:15:19.477Z,15.28
2022-08-10T01:16:19.395Z,15.31
2022-08-10T01:17:19.315Z,15.20
2022-08-10T01:18:19.238Z,15.16
2022-08-10T01:19:19.160Z,15.13
2022-08-10T01:20:27.489Z,15.16
2022-08-10T01:21:19.010Z,15.15
2022-08-10T01:22:18.933Z,15.23
2022-08-10T01:23:18.858Z,15.09
2022-08-10T01:24:24.982Z,15.01
2022-08-10T01:25:18.701Z,15.05
2022-08-10T01:26:30.805Z,15.01
2022-08-10T01:27:18.548Z,14.97
2022-08-10T01:28:18.470Z,14.91
2022-08-10T01:29:18.395Z,14.95
2022-08-10T01:30:18.318Z,14.90
2022-08-10T01:31:18.243Z,14.85
2022-08-10T01:32:18.161Z,14.93
2022-08-10T01:33:18.085Z,14.84
2022-08-10T01:34:18.172Z,14.79
2022-08-10T01:35:17.940Z,14.83
2022-08-10T01:36:17.852Z,14.75
2022-08-10T01:37:17.774Z,14.80
2022-08-10T01:38:17.705Z,14.88
2022-08-10T01:39:17.673Z,14.80
2022-08-10T01:40:17.548Z,14.78
2022-08-10T01:41:17.467Z,14.56
2022-08-10T01:42:17.389Z,14.60
2022-08-10T01:43:17.316Z,14.60
2022-08-10T01:44:20.033Z,14.50
2022-08-10T01:45:17.156Z,14.36
2022-08-10T01:46:17.079Z,14.29
2022-08-10T01:47:21.685Z,14.38
2022-08-10T01:48:16.998Z,14.41
2022-08-10T01:49:16.851Z,14.36
2022-08-10T01:50:16.774Z,14.38
2022-08-10T01:51:16.698Z,14.47
2022-08-10T01:52:18.203Z,14.46
2022-08-10T01:53:16.541Z,14.49
2022-08-10T01:54:16.463Z,14.44
2022-08-10T01:55:16.382Z,14.49
2022-08-10T01:56:16.312Z,14.41
2022-08-10T01:57:16.233Z,14.35
2022-08-10T01:58:16.156Z,14.34
2022-08-10T01:59:16.074Z,14.36
2022-08-10T02:00:16.001Z,14.49
2022-08-10T02:01:17.102Z,14.42
2022-08-10T02:02:15.852Z,14.36
2022-08-10T02:03:15.765Z,14.28
2022-08-10T02:04:15.691Z,14.28
2022-08-10T02:05:15.613Z,14.19
2022-08-10T02:06:15.537Z,14.10
2022-08-10T02:07:15.455Z,14.09
2022-08-10T02:08:15.381Z,14.03
2022-08-10T02:09:15.315Z,14.14
2022-08-10T02:10:15.223Z,14.11
2022-08-10T02:11:15.151Z,14.01
2022-08-10T02:12:15.072Z,13.95
2022-08-10T02:13:14.994Z,13.91
2022-08-10T02:14:14.916Z,13.89
2022-08-10T02:15:14.835Z,13.91
2022-08-10T02:16:14.760Z,13.98
2022-08-10T02:17:57.820Z,13.84
2022-08-10T02:18:14.608Z,13.78
2022-08-10T02:19:14.524Z,13.78
2022-08-10T02:20:14.452Z,13.71
2022-08-10T02:21:14.375Z,13.74
2022-08-10T02:22:36.275Z,13.73
2022-08-10T02:23:14.218Z,13.80
2022-08-10T02:24:14.142Z,13.86
2022-08-10T02:25:40.070Z,13.70
2022-08-10T02:26:13.992Z,13.76
2022-08-10T02:27:13.905Z,13.66
2022-08-10T02:28:30.006Z,13.59
2022-08-10T02:29:13.751Z,13.61
2022-08-10T02:30:13.676Z,13.62
2022-08-10T02:31:13.598Z,13.50
2022-08-10T02:32:13.525Z,13.41
2022-08-10T02:33:13.443Z,13.43
2022-08-10T02:34:13.366Z,13.40
2022-08-10T02:35:22.664Z,13.33
2022-08-10T02:36:13.211Z,13.27
2022-08-10T02:37:13.528Z,13.21
2022-08-10T02:38:13.054Z,13.27
2022-08-10T02:39:13.051Z,13.32
2022-08-10T02:45:02.152Z,13.25
2022-08-10T02:45:13.653Z,13.37
2022-08-10T02:45:17.610Z,13.28
2022-08-10T02:45:23.253Z,13.02
2022-08-10T02:45:27.903Z,13.11
2022-08-10T02:45:29.609Z,12.99
2022-08-10T02:46:12.432Z,12.96
2022-08-10T02:47:12.353Z,12.92
2022-08-10T02:48:12.277Z,13.00
2022-08-10T02:49:12.198Z,12.99
2022-08-10T02:50:12.123Z,13.06
2022-08-10T02:51:12.050Z,13.09
2022-08-10T02:52:11.970Z,13.18
2022-08-10T02:53:54.531Z,13.15
2022-08-10T02:54:11.811Z,13.27
2022-08-10T02:55:17.520Z,13.25
2022-08-10T02:56:11.663Z,13.29
2022-08-10T02:57:11.576Z,13.36
2022-08-10T02:58:16.624Z,13.27
2022-08-10T02:59:11.420Z,13.22
2022-08-10T03:00:11.343Z,13.38
2022-08-10T03:01:11.314Z,13.29
2022-08-10T03:02:11.184Z,13.27
2022-08-10T03:03:11.107Z,13.28
2022-08-10T03:04:11.031Z,13.22
2022-08-10T03:05:10.954Z,13.18
2022-08-10T03:06:10.878Z,13.10
2022-08-10T03:07:10.795Z,13.14
2022-08-10T03:08:10.720Z,13.18
2022-08-10T03:09:10.641Z,13.14
2022-08-10T03:10:14.382Z,13.19
2022-08-10T03:11:10.483Z,13.14
2022-08-10T03:12:35.394Z,13.15
2022-08-10T03:13:10.337Z,13.18
2022-08-10T03:14:10.253Z,13.22
2022-08-10T03:15:10.172Z,13.14
2022-08-10T03:16:10.095Z,13.14
2022-08-10T03:17:10.015Z,13.15
2022-08-10T03:18:09.942Z,13.18
2022-08-10T03:20:35.313Z,13.14
2022-08-10T03:20:36.464Z,13.07
2022-08-10T03:21:11.955Z,13.11
2022-08-10T03:22:09.627Z,13.09
2022-08-10T03:23:09.551Z,13.17
2022-08-10T03:24:30.199Z,13.04
2022-08-10T03:25:09.391Z,13.07
2022-08-10T03:26:09.315Z,13.03
2022-08-10T03:27:09.237Z,13.07
2022-08-10T03:28:09.156Z,13.06
2022-08-10T03:29:09.079Z,13.17
2022-08-10T03:30:28.587Z,13.15
2022-08-10T03:31:08.924Z,13.00
2022-08-10T03:32:08.846Z,13.07
2022-08-10T03:33:08.768Z,13.04
2022-08-10T03:34:22.099Z,12.99
2022-08-10T03:35:08.607Z,13.07
2022-08-10T03:36:42.054Z,13.00
2022-08-10T03:37:08.456Z,13.06
2022-08-10T03:38:08.376Z,12.96
2022-08-10T03:39:08.310Z,12.99
2022-08-10T03:40:08.219Z,12.88
2022-08-10T03:41:08.143Z,12.88
2022-08-10T03:42:08.062Z,12.84
2022-08-10T03:43:07.987Z,12.73
2022-08-10T03:44:07.908Z,12.71
2022-08-10T03:45:07.828Z,12.71
2022-08-10T03:46:07.751Z,12.79
2022-08-10T03:47:15.920Z,12.81
2022-08-10T03:48:07.598Z,12.89
2022-08-10T03:49:07.513Z,12.84
2022-08-10T03:50:28.101Z,12.94
2022-08-10T03:51:07.360Z,12.86
2022-08-10T03:52:07.285Z,12.85
2022-08-10T03:53:07.206Z,12.86
2022-08-10T03:54:07.612Z,12.88
2022-08-10T03:55:07.048Z,12.89
2022-08-10T03:56:28.529Z,12.84
2022-08-10T03:57:06.892Z,12.86
2022-08-10T03:58:06.816Z,12.85
2022-08-10T03:59:06.733Z,12.89
2022-08-10T04:00:06.656Z,12.92
2022-08-10T04:01:06.627Z,12.94
2022-08-10T04:02:44.991Z,12.96
2022-08-10T04:03:06.421Z,13.02
2022-08-10T04:04:10.836Z,13.09
2022-08-10T04:05:06.264Z,13.03
2022-08-10T04:06:06.185Z,13.09
2022-08-10T04:07:06.108Z,13.00
2022-08-10T04:08:06.028Z,12.82
2022-08-10T04:09:05.953Z,12.69
2022-08-10T04:10:05.872Z,12.64
2022-08-10T04:11:05.798Z,12.69
2022-08-10T04:12:05.714Z,12.63
2022-08-10T04:13:05.639Z,12.67
2022-08-10T04:14:05.564Z,12.67
2022-08-10T04:15:05.482Z,12.78
2022-08-10T04:16:07.432Z,12.79
2022-08-10T04:17:05.329Z,12.73
2022-08-10T04:18:06.543Z,12.77
2022-08-10T04:19:05.165Z,12.73
2022-08-10T04:20:05.089Z,12.66
2022-08-10T04:21:05.013Z,12.67
2022-08-10T04:22:04.931Z,12.73
2022-08-10T04:23:04.853Z,12.73
2022-08-10T04:24:04.775Z,12.82
2022-08-10T04:25:04.701Z,12.81
2022-08-10T04:26:04.617Z,12.84
2022-08-10T04:27:04.540Z,12.86
2022-08-10T04:28:04.462Z,12.82
2022-08-10T04:29:04.385Z,12.81
2022-08-10T04:30:04.304Z,12.77
2022-08-10T04:31:04.225Z,12.71
2022-08-10T04:32:04.153Z,12.74
2022-08-10T04:33:04.071Z,12.67
2022-08-10T04:34:08.530Z,12.55
2022-08-10T04:35:03.917Z,12.52
2022-08-10T04:36:03.832Z,12.52
2022-08-10T04:37:08.626Z,12.48
2022-08-10T04:38:03.677Z,12.39
2022-08-10T04:39:03.600Z,12.41
2022-08-10T04:40:03.518Z,12.44
2022-08-10T04:41:03.446Z,12.45
2022-08-10T04:42:03.366Z,12.42
2022-08-10T04:43:10.411Z,12.44
2022-08-10T04:44:03.204Z,12.45
2022-08-10T04:45:03.133Z,12.44
2022-08-10T04:46:03.050Z,12.41
2022-08-10T04:47:02.981Z,12.45
2022-08-10T04:48:03.323Z,12.59
2022-08-10T04:49:02.815Z,12.60
2022-08-10T04:50:02.734Z,12.63
2022-08-10T04:51:02.662Z,12.79
2022-08-10T04:52:02.591Z,12.85
2022-08-10T04:53:02.503Z,12.92
2022-08-10T04:54:06.941Z,12.97
2022-08-10T04:55:02.344Z,13.04
2022-08-10T04:56:02.264Z,13.07
2022-08-10T04:57:02.189Z,13.04
2022-08-10T04:58:02.107Z,13.03
2022-08-10T04:59:02.037Z,13.03
2022-08-10T05:00:01.952Z,13.09
2022-08-10T05:01:01.951Z,13.06
2022-08-10T05:02:22.590Z,12.97
2022-08-10T05:03:01.719Z,13.02
2022-08-10T05:04:35.130Z,13.18
2022-08-10T05:05:01.560Z,13.15
2022-08-10T05:06:01.554Z,13.19
2022-08-10T05:07:01.402Z,13.29
2022-08-10T05:08:01.325Z,13.29
2022-08-10T05:09:01.247Z,13.36
2022-08-10T05:10:06.608Z,13.45
2022-08-10T05:11:01.092Z,13.43
2022-08-10T05:12:01.014Z,13.41
2022-08-10T05:13:00.935Z,13.62
2022-08-10T05:14:00.862Z,13.63
2022-08-10T05:15:00.776Z,13.62
2022-08-10T05:16:00.700Z,13.59
2022-08-10T05:17:00.619Z,13.71
2022-08-10T05:18:08.087Z,13.63
2022-08-10T05:19:00.465Z,13.78
2022-08-10T05:20:03.757Z,13.87
2022-08-10T05:21:00.312Z,13.87
2022-08-10T05:22:04.424Z,13.98
2022-08-10T05:23:00.155Z,13.98
2022-08-10T05:24:00.083Z,13.87
2022-08-10T05:24:59.994Z,13.91
2022-08-10T05:25:59.917Z,13.96
2022-08-10T05:27:09.486Z,14.02
2022-08-10T05:28:04.296Z,14.07
2022-08-10T05:28:59.683Z,14.20
2022-08-10T05:30:01.520Z,14.20
2022-08-10T05:30:59.527Z,14.16
2022-08-10T05:31:59.446Z,14.24
2022-08-10T05:33:02.591Z,14.39
2022-08-10T05:33:59.292Z,14.39
2022-08-10T05:34:59.215Z,14.42
2022-08-10T05:35:59.131Z,14.36
2022-08-10T05:36:59.056Z,14.42
2022-08-10T05:38:13.460Z,14.34
2022-08-10T05:38:58.899Z,14.44
2022-08-10T05:39:58.856Z,14.53
2022-08-10T05:40:58.744Z,14.52
2022-08-10T05:42:01.058Z,14.54
2022-08-10T05:42:58.590Z,14.57
2022-08-10T05:43:58.508Z,14.64
2022-08-10T05:44:58.432Z,14.60
2022-08-10T05:46:18.652Z,14.69
2022-08-10T05:46:58.276Z,14.85
2022-08-10T05:48:54.646Z,14.74
2022-08-10T05:49:01.144Z,14.84
2022-08-10T05:49:58.042Z,14.88
2022-08-10T05:50:57.965Z,14.94
2022-08-10T05:51:57.887Z,15.03
2022-08-10T05:52:57.811Z,15.05
2022-08-10T05:54:01.893Z,15.12
2022-08-10T05:55:02.599Z,15.13
2022-08-10T05:55:57.580Z,15.18
2022-08-10T05:56:58.430Z,15.16
2022-08-10T05:57:57.424Z,15.27
2022-08-10T05:58:57.339Z,15.28
2022-08-10T06:00:34.195Z,15.28
2022-08-10T06:00:57.275Z,15.35
2022-08-10T06:02:30.767Z,15.39
2022-08-10T06:02:57.028Z,15.46
2022-08-10T06:03:56.950Z,15.51
2022-08-10T06:04:56.879Z,15.55
2022-08-10T06:05:56.804Z,15.59
2022-08-10T06:06:56.720Z,15.70
2022-08-10T06:07:56.672Z,15.88
2022-08-10T06:08:56.566Z,15.88
2022-08-10T06:09:59.777Z,16.03
2022-08-10T06:12:26.487Z,16.14
2022-08-10T06:12:26.565Z,16.18
2022-08-10T06:12:56.814Z,16.25
2022-08-10T06:13:59.789Z,16.44
2022-08-10T06:14:59.835Z,16.47
2022-08-10T06:15:56.021Z,16.48
2022-08-10T06:16:55.947Z,16.52
2022-08-10T06:18:01.550Z,16.60
2022-08-10T06:18:55.792Z,16.71
2022-08-10T06:19:55.710Z,16.81
2022-08-10T06:20:55.635Z,16.84
2022-08-10T06:22:01.144Z,16.84
2022-08-10T06:22:55.477Z,16.95
2022-08-10T06:23:55.404Z,16.93
2022-08-10T06:25:23.118Z,17.13
2022-08-10T06:26:12.074Z,17.08
2022-08-10T06:26:55.174Z,17.17
2022-08-10T06:27:55.095Z,17.25
2022-08-10T06:29:03.735Z,17.26
2022-08-10T06:29:54.938Z,17.28
2022-08-10T06:30:54.864Z,17.39
2022-08-10T06:31:54.790Z,17.28
2022-08-10T06:32:54.706Z,17.44
2022-08-10T06:33:54.630Z,17.55
2022-08-10T06:34:54.554Z,17.53
2022-08-10T06:35:54.475Z,17.63
2022-08-10T06:36:54.461Z,17.66
2022-08-10T06:37:54.323Z,17.70
2022-08-10T06:38:54.395Z,17.77
2022-08-10T06:39:54.225Z,17.77
2022-08-10T06:40:54.098Z,17.85
2022-08-10T06:42:01.372Z,17.89
2022-08-10T06:42:53.937Z,18.00
2022-08-10T06:43:53.860Z,17.95
2022-08-10T06:44:53.788Z,18.09
2022-08-10T06:46:07.696Z,18.10
2022-08-10T06:46:53.631Z,18.13
2022-08-10T06:47:53.550Z,18.22
2022-08-10T06:48:53.481Z,18.34
2022-08-10T06:49:53.397Z,18.37
2022-08-10T06:50:57.968Z,18.55
2022-08-10T06:51:57.195Z,18.61
2022-08-10T06:52:53.173Z,18.57
2022-08-10T06:53:55.071Z,18.68
2022-08-10T06:54:53.020Z,18.79
2022-08-10T06:55:56.643Z,18.77
2022-08-10T06:57:15.059Z,18.94
2022-08-10T06:57:59.864Z,18.97
2022-08-10T06:58:52.712Z,18.99
2022-08-10T06:59:52.633Z,19.05
2022-08-10T07:00:52.580Z,19.09
2022-08-10T07:01:52.482Z,19.17
2022-08-10T07:02:52.408Z,19.28
2022-08-10T07:03:52.328Z,19.35
2022-08-10T07:04:52.253Z,19.45
2022-08-10T07:05:52.175Z,19.55
2022-08-10T07:06:52.103Z,19.61
2022-08-10T07:07:52.030Z,19.69
2022-08-10T07:08:51.949Z,19.76
2022-08-10T07:09:51.872Z,19.82
2022-08-10T07:10:51.800Z,20.03
2022-08-10T07:11:51.717Z,20.05
2022-08-10T07:12:51.645Z,20.10
2022-08-10T07:14:15.696Z,20.24
2022-08-10T07:14:51.515Z,20.27
2022-08-10T07:15:57.258Z,20.30
2022-08-10T07:16:51.343Z,20.37
2022-08-10T07:17:51.263Z,20.50
2022-08-10T07:18:51.194Z,20.46
2022-08-10T07:19:52.177Z,20.64
2022-08-10T07:20:51.040Z,20.65
2022-08-10T07:21:50.959Z,20.76
2022-08-10T07:23:02.603Z,20.76
2022-08-10T07:24:00.030Z,20.91
2022-08-10T07:24:50.736Z,20.94
2022-08-10T07:25:50.659Z,21.04
2022-08-10T07:26:50.587Z,21.11
2022-08-10T07:27:58.563Z,21.20
2022-08-10T07:28:50.434Z,21.35
2022-08-10T07:29:53.378Z,21.26
2022-08-10T07:30:50.280Z,21.39
2022-08-10T07:31:57.096Z,21.53
2022-08-10T07:32:50.131Z,21.59
2022-08-10T07:33:50.053Z,21.72
2022-08-10T07:34:49.983Z,21.81
2022-08-10T07:35:49.906Z,21.98
2022-08-10T07:36:49.830Z,22.04
2022-08-10T07:37:49.756Z,22.04
2022-08-10T07:38:49.682Z,22.24
2022-08-10T07:40:02.552Z,22.41
2022-08-10T07:40:49.534Z,22.62
2022-08-10T07:41:49.456Z,22.68
2022-08-10T07:42:49.383Z,22.81
2022-08-10T07:43:49.307Z,23.02
2022-08-10T07:44:49.234Z,23.14
2022-08-10T07:45:49.155Z,23.14
2022-08-10T07:46:49.086Z,23.17
2022-08-10T07:47:54.553Z,23.42
2022-08-10T07:48:48.934Z,23.43
2022-08-10T07:49:48.862Z,23.50
2022-08-10T07:50:48.793Z,23.56
2022-08-10T07:51:54.474Z,23.72
2022-08-10T07:52:48.644Z,23.87
2022-08-10T07:53:48.562Z,23.93
2022-08-10T07:54:48.489Z,24.07
2022-08-10T07:56:01.787Z,24.00
2022-08-10T07:56:49.440Z,24.01
2022-08-10T07:57:48.272Z,24.02
2022-08-10T07:58:52.024Z,24.05
2022-08-10T07:59:48.122Z,24.17
2022-08-10T08:00:48.051Z,24.19
2022-08-10T08:01:48.106Z,24.32
2022-08-10T08:02:47.903Z,24.29
2022-08-10T08:04:10.853Z,24.34
2022-08-10T08:04:47.759Z,24.41
2022-08-10T08:05:59.054Z,24.47
2022-08-10T08:06:47.616Z,24.52
2022-08-10T08:07:47.537Z,24.83
2022-08-10T08:08:47.464Z,24.98
2022-08-10T08:09:57.762Z,25.09
2022-08-10T08:10:47.317Z,25.16
2022-08-10T08:11:47.247Z,25.28
2022-08-10T08:12:47.172Z,25.45
2022-08-10T08:13:47.100Z,25.46
2022-08-10T08:14:47.027Z,25.45
2022-08-10T08:16:18.750Z,25.31
2022-08-10T08:16:46.882Z,25.34
2022-08-10T08:17:46.809Z,25.27
2022-08-10T08:19:03.842Z,25.20
2022-08-10T08:19:55.318Z,25.19
2022-08-10T08:20:46.600Z,25.37
2022-08-10T08:24:07.377Z,25.37
2022-08-10T08:24:10.070Z,25.28
2022-08-10T08:24:24.107Z,25.40
2022-08-10T08:24:46.301Z,25.38
2022-08-10T08:25:46.229Z,25.55
2022-08-10T08:26:46.173Z,25.71
2022-08-10T08:27:47.874Z,25.86
2022-08-10T08:28:46.018Z,26.02
2022-08-10T08:29:45.948Z,26.04
2022-08-10T08:30:48.923Z,26.07
2022-08-10T08:32:02.144Z,26.11
2022-08-10T08:32:45.726Z,25.94
2022-08-10T08:33:45.655Z,26.04
2022-08-10T08:34:45.587Z,26.12
2022-08-10T08:35:45.517Z,26.09
2022-08-10T08:36:45.441Z,26.20
2022-08-10T08:38:32.172Z,26.27
2022-08-10T08:38:45.300Z,26.40
2022-08-10T08:39:47.369Z,26.47
2022-08-10T08:40:45.157Z,26.58
2022-08-10T08:41:45.087Z,26.75
2022-08-10T08:42:45.010Z,26.86
2022-08-10T08:43:44.941Z,26.87
2022-08-10T08:44:44.871Z,26.80
2022-08-10T08:45:54.033Z,26.87
2022-08-10T08:46:44.726Z,26.90
2022-08-10T08:48:03.202Z,26.98
2022-08-10T08:48:44.588Z,26.98
2022-08-10T08:50:07.958Z,27.07
2022-08-10T08:50:44.447Z,27.02
2022-08-10T08:52:11.376Z,27.07
2022-08-10T08:52:44.301Z,27.14
2022-08-10T08:54:01.087Z,27.19
2022-08-10T08:54:44.163Z,27.20
2022-08-10T08:55:52.359Z,27.09
2022-08-10T08:56:49.577Z,27.21
2022-08-10T08:57:50.330Z,27.20
2022-08-10T08:58:43.882Z,27.26
2022-08-10T08:59:43.811Z,27.24
2022-08-10T09:00:43.741Z,27.16
2022-08-10T09:01:43.694Z,27.14
2022-08-10T09:02:43.598Z,27.17
2022-08-10T09:03:43.529Z,27.20
2022-08-10T09:04:43.456Z,27.07
2022-08-10T09:05:59.790Z,27.04
2022-08-10T09:06:43.316Z,27.02
2022-08-10T09:08:00.207Z,26.95
2022-08-10T09:08:43.176Z,27.08
2022-08-10T09:09:43.112Z,27.04
2022-08-10T09:10:43.039Z,27.17
2022-08-10T09:11:42.970Z,27.21
2022-08-10T09:12:42.896Z,27.34
2022-08-10T09:13:42.830Z,27.35
2022-08-10T09:14:42.759Z,27.61
2022-08-10T09:15:42.689Z,27.77
2022-08-10T09:16:42.619Z,27.69
2022-08-10T09:17:42.550Z,27.67
2022-08-10T09:18:42.477Z,27.61
2022-08-10T09:19:42.409Z,27.70
2022-08-10T09:20:42.338Z,27.91
2022-08-10T09:21:52.335Z,27.91
2022-08-10T09:22:42.200Z,28.11
2022-08-10T09:24:04.409Z,28.10
2022-08-10T09:24:42.069Z,27.91
2022-08-10T09:25:41.993Z,27.80
2022-08-10T09:26:41.919Z,27.79
2022-08-10T09:27:43.222Z,27.83
2022-08-10T09:28:41.786Z,27.92
2022-08-10T09:29:41.714Z,28.06
2022-08-10T09:30:52.224Z,28.22
2022-08-10T09:31:41.578Z,28.19
2022-08-10T09:36:16.604Z,28.07
2022-08-10T09:36:20.691Z,27.87
2022-08-10T09:36:26.168Z,27.84
2022-08-10T09:36:29.730Z,27.98
2022-08-10T09:36:41.793Z,27.84
2022-08-10T09:38:01.658Z,27.76
2022-08-10T09:38:41.091Z,27.88
2022-08-10T09:40:56.913Z,27.98
2022-08-10T09:41:00.368Z,28.22
2022-08-10T09:41:40.975Z,28.36
2022-08-10T09:42:40.830Z,28.35
2022-08-10T09:43:40.748Z,28.16
2022-08-10T09:44:57.067Z,27.82
2022-08-10T09:45:40.614Z,27.70
2022-08-10T09:46:40.545Z,27.67
2022-08-10T09:48:01.829Z,27.64
2022-08-10T09:48:40.401Z,27.62
2022-08-10T09:49:57.826Z,27.69
2022-08-10T09:51:16.387Z,27.73
2022-08-10T09:51:45.731Z,27.88
2022-08-10T09:52:40.128Z,28.13
2022-08-10T09:53:40.057Z,28.29
2022-08-10T09:54:39.988Z,28.39
2022-08-10T09:56:17.667Z,28.47
2022-08-10T09:56:39.856Z,28.61
2022-08-10T09:57:54.782Z,28.56
2022-08-10T09:58:39.713Z,28.46
2022-08-10T10:00:01.446Z,28.43
2022-08-10T10:00:39.584Z,28.36
2022-08-10T10:02:02.868Z,28.19
2022-08-10T10:02:39.440Z,28.25
2022-08-10T10:03:39.410Z,28.38
2022-08-10T10:04:39.305Z,28.26
2022-08-10T10:05:39.236Z,28.35
2022-08-10T10:06:39.165Z,28.35
2022-08-10T10:07:39.106Z,28.38
2022-08-10T10:08:42.701Z,28.49
2022-08-10T10:09:38.966Z,28.56
2022-08-10T10:10:46.547Z,28.47
2022-08-10T10:11:38.825Z,28.47
2022-08-10T10:12:38.760Z,28.24
2022-08-10T10:14:02.195Z,28.17
2022-08-10T10:14:38.628Z,28.29
2022-08-10T10:15:38.559Z,28.38
2022-08-10T10:16:38.485Z,28.35
2022-08-10T10:17:38.533Z,28.31
2022-08-10T10:18:38.355Z,28.38
2022-08-10T10:19:40.770Z,28.47
2022-08-10T10:20:38.217Z,28.56
2022-08-10T10:21:54.694Z,28.68
2022-08-10T10:22:38.077Z,28.75
2022-08-10T10:23:38.016Z,28.90
2022-08-10T10:24:37.940Z,29.04
2022-08-10T10:25:50.721Z,29.04
2022-08-10T10:26:37.809Z,29.04
2022-08-10T10:27:37.941Z,28.94
2022-08-10T10:29:15.357Z,28.96
2022-08-10T10:29:57.449Z,29.00
2022-08-10T10:30:37.534Z,29.13
2022-08-10T10:31:37.463Z,29.00
2022-08-10T10:32:37.621Z,28.86
2022-08-10T10:33:37.332Z,28.91
2022-08-10T10:34:37.262Z,28.84
2022-08-10T10:35:37.193Z,28.63
2022-08-10T10:36:37.127Z,28.71
2022-08-10T10:38:01.128Z,28.65
2022-08-10T10:38:36.997Z,28.69
2022-08-10T10:39:37.054Z,28.71
2022-08-10T10:40:36.854Z,28.75
2022-08-10T10:41:55.872Z,28.57
2022-08-10T10:42:47.140Z,28.65
2022-08-10T10:43:36.653Z,28.63
2022-08-10T10:44:41.551Z,28.62
2022-08-10T10:45:41.655Z,28.51
2022-08-10T10:46:36.443Z,28.57
2022-08-10T10:47:36.495Z,28.61
2022-08-10T10:48:36.314Z,28.44
2022-08-10T10:49:36.243Z,28.39
2022-08-10T10:50:36.171Z,28.41
2022-08-10T10:51:36.109Z,28.35
2022-08-10T10:52:36.042Z,28.38
2022-08-10T10:53:35.969Z,28.41
2022-08-10T10:54:35.902Z,28.47
2022-08-10T10:56:13.386Z,28.54
2022-08-10T10:56:35.766Z,28.63
2022-08-10T10:57:59.458Z,28.59
2022-08-10T10:58:35.634Z,28.57
2022-08-10T10:59:55.448Z,28.57
2022-08-10T11:00:35.495Z,28.54
2022-08-10T11:01:35.462Z,28.53
2022-08-10T11:02:35.371Z,28.53
2022-08-10T11:03:35.373Z,28.56
2022-08-10T11:04:35.224Z,28.61
2022-08-10T11:05:35.154Z,28.66
2022-08-10T11:06:40.530Z,28.68
2022-08-10T11:07:35.204Z,28.57
2022-08-10T11:08:34.947Z,28.51
2022-08-10T11:10:03.806Z,28.54
2022-08-10T11:10:37.456Z,28.31
2022-08-10T11:12:02.085Z,28.24
2022-08-10T11:12:34.678Z,28.32
2022-08-10T11:14:25.530Z,28.24
2022-08-10T11:14:34.540Z,28.24
2022-08-10T11:15:34.475Z,28.17
2022-08-10T11:16:34.403Z,28.13
2022-08-10T11:17:34.364Z,28.24
2022-08-10T11:18:34.268Z,28.19
2022-08-10T11:20:02.815Z,28.02
2022-08-10T11:20:34.134Z,28.06
2022-08-10T11:21:34.063Z,27.97
2022-08-10T11:22:36.766Z,28.13
2022-08-10T11:23:33.960Z,28.19
2022-08-10T11:24:49.103Z,28.36
2022-08-10T11:25:33.794Z,28.47
2022-08-10T11:26:33.721Z,28.53
2022-08-10T11:27:33.715Z,28.61
2022-08-10T11:28:34.984Z,28.73
2022-08-10T11:29:33.517Z,28.83
2022-08-10T11:30:33.448Z,28.83
2022-08-10T11:31:33.389Z,28.86
2022-08-10T11:32:33.309Z,28.83
2022-08-10T11:33:39.316Z,28.75
2022-08-10T11:34:49.125Z,28.66
2022-08-10T11:35:35.094Z,28.59
2022-08-10T11:36:33.039Z,28.66
2022-08-10T11:38:34.209Z,28.71
2022-08-10T11:38:47.203Z,28.71
2022-08-10T11:39:32.845Z,28.66
2022-08-10T11:40:32.764Z,28.84
2022-08-10T11:42:08.022Z,29.04
2022-08-10T11:42:36.233Z,29.36
2022-08-10T11:43:32.603Z,29.53
2022-08-10T11:44:32.496Z,29.90
2022-08-10T11:45:32.425Z,30.17
2022-08-10T11:46:32.360Z,30.26
2022-08-10T11:47:32.293Z,30.05
2022-08-10T11:48:53.692Z,29.74
2022-08-10T11:49:32.155Z,29.78
2022-08-10T11:50:32.087Z,29.66
2022-08-10T11:51:32.021Z,29.65
2022-08-10T11:52:32.099Z,29.56
2022-08-10T11:53:38.801Z,29.44
2022-08-10T11:54:31.826Z,29.46
2022-08-10T11:55:31.751Z,29.36
2022-08-10T11:56:31.683Z,29.44
2022-08-10T11:57:53.557Z,29.59
2022-08-10T11:58:31.553Z,29.69
2022-08-10T11:59:31.483Z,29.71
2022-08-10T12:00:32.406Z,29.80
2022-08-10T12:01:31.347Z,29.66
2022-08-10T12:02:31.325Z,29.83
2022-08-10T12:03:34.567Z,29.78
2022-08-10T12:04:31.144Z,29.87
2022-08-10T12:05:51.695Z,29.96
2022-08-10T12:06:54.354Z,30.10
2022-08-10T12:10:05.627Z,30.34
2022-08-10T12:10:06.914Z,30.17
2022-08-10T12:10:08.808Z,30.46
2022-08-10T12:10:30.742Z,30.43
2022-08-10T12:11:30.672Z,30.29
2022-08-10T12:12:30.605Z,30.06
2022-08-10T12:13:30.538Z,29.97
2022-08-10T12:14:30.475Z,30.03
2022-08-10T12:15:30.406Z,30.14
2022-08-10T12:16:30.342Z,30.10
2022-08-10T12:17:30.272Z,30.02
2022-08-10T12:18:30.206Z,29.77
2022-08-10T12:19:30.141Z,29.56
2022-08-10T12:20:30.073Z,29.55
2022-08-10T12:21:30.005Z,29.37
2022-08-10T12:22:29.941Z,29.46
2022-08-10T12:23:29.872Z,29.51
2022-08-10T12:24:29.804Z,29.59
2022-08-10T12:25:55.724Z,29.80
2022-08-10T12:26:29.675Z,29.99
2022-08-10T12:27:29.602Z,29.95
2022-08-10T12:28:51.396Z,29.95
2022-08-10T12:29:29.472Z,30.21
2022-08-10T12:30:29.416Z,30.26
2022-08-10T12:31:29.341Z,30.19
2022-08-10T12:32:29.274Z,30.10
2022-08-10T12:33:29.204Z,30.08
2022-08-10T12:34:29.137Z,29.84
2022-08-10T12:35:29.071Z,29.84
2022-08-10T12:36:29.009Z,29.87
2022-08-10T12:37:28.937Z,29.89
2022-08-10T12:38:28.873Z,29.75
2022-08-10T12:39:28.917Z,29.68
2022-08-10T12:40:35.457Z,29.63
2022-08-10T12:41:44.319Z,29.66
2022-08-10T12:43:13.368Z,29.83
2022-08-10T12:44:07.519Z,29.80
2022-08-10T12:44:35.741Z,29.95
2022-08-10T12:45:28.403Z,30.26
2022-08-10T12:46:28.342Z,30.32
2022-08-10T12:47:28.272Z,30.11
2022-08-10T12:48:31.225Z,29.97
2022-08-10T12:49:28.141Z,29.80
2022-08-10T12:50:32.831Z,29.78
2022-08-10T12:51:28.014Z,29.77